Wilder, Tennessee
Current Conditions -  °F | °C
As of 5:53 PM on Wednesday 22 Oct 2014 (Local Time) from KCSV Reporting Station
Clear Clear  
Wind Chill: 54°   Ceiling: Unl
Heat Index: 54°   Visibility: 10mi
Dew Point: 39°   Wind: 7mph
Humidity: 57%   Direction: 50°NE
Pressure: 30.18"   Gusts: NA
Location:  36.27°N, 85.09°W
Report Text: KCSV 222253Z AUTO 05006KT 10SM CLR 12/04 A3018 RMK AO2 SLP218 T01220039
Loading
Personal Weather Stations






























Interactive Weather Map
Tropical Storm Tracking
New forecast layout! Learn more

10-Day Weather Forecast

Advertisements
Track Severe Weather on mobile